Time;durP1;ratioP1;P1;durP2;ratioP2;P2;SDS_P1;SDS_P2;PMS_P1;PMS_P2;Temp;Humidity;BMP_temperature;BMP_pressure;BME280_temperature;BME280_humidity;BME280_pressure;Samples;Min_cycle;Max_cycle;Signal;HPM_P1;HPM_P2
2023/07/09 00:00:19;;;;;;;20.27;12.20;;;;;;;19.30;nan;100896.00;4970507;28;20034;-72
2023/07/09 00:02:45;;;;;;;21.65;12.45;;;;;;;19.31;nan;100900.28;4955896;28;20128;-73
2023/07/09 00:05:14;;;;;;;16.70;10.35;;;;;;;19.26;nan;100899.50;4970236;28;20019;-73
2023/07/09 00:07:40;;;;;;;13.45;9.75;;;;;;;19.23;nan;100892.81;4973745;28;20030;-72
2023/07/09 00:10:20;;;;;;;16.80;8.98;;;;;;;19.17;nan;100890.44;4973270;28;20040;-72
2023/07/09 00:12:47;;;;;;;21.55;11.55;;;;;;;19.11;nan;100892.31;4973868;28;20035;-73
2023/07/09 00:15:15;;;;;;;17.15;8.00;;;;;;;19.09;nan;100886.44;4969531;28;20485;-72
2023/07/09 00:17:41;;;;;;;12.13;6.33;;;;;;;19.08;nan;100890.16;4969794;28;20089;-72
2023/07/09 00:20:13;;;;;;;9.93;6.40;;;;;;;18.94;nan;100887.28;4970092;28;20031;-72
2023/07/09 00:22:39;;;;;;;15.80;8.73;;;;;;;18.90;nan;100875.53;4966777;28;20034;-72
2023/07/09 00:25:04;;;;;;;19.10;11.45;;;;;;;18.89;nan;100880.06;4967384;28;20018;-72
2023/07/09 00:27:33;;;;;;;17.02;8.95;;;;;;;18.90;nan;100892.34;4954058;28;20042;-72
2023/07/09 00:29:59;;;;;;;12.18;6.45;;;;;;;18.77;nan;100884.88;4967291;28;20038;-72
2023/07/09 00:32:25;;;;;;;13.88;6.68;;;;;;;18.79;nan;100887.28;4971768;28;20039;-73
2023/07/09 00:34:53;;;;;;;13.63;7.75;;;;;;;18.80;nan;100891.56;4966443;28;20034;-72
2023/07/09 00:37:21;;;;;;;15.18;8.30;;;;;;;18.72;nan;100895.50;4967807;28;20507;-72
2023/07/09 00:39:49;;;;;;;14.38;7.65;;;;;;;18.64;nan;100890.72;4967894;28;20042;-71
2023/07/09 00:42:17;;;;;;;13.53;6.50;;;;;;;18.64;nan;100888.03;4976305;28;20813;-72
2023/07/09 00:44:51;;;;;;;11.70;6.17;;;;;;;18.59;nan;100875.50;4969284;28;20130;-72
2023/07/09 00:47:28;;;;;;;8.77;5.75;;;;;;;18.70;nan;100889.66;4966762;28;20039;-72
2023/07/09 00:50:09;;;;;;;12.00;5.78;;;;;;;18.62;nan;100877.63;4969201;28;20114;-72
2023/07/09 00:52:45;;;;;;;10.57;5.38;;;;;;;18.60;nan;100882.44;4967253;28;20073;-71
2023/07/09 00:55:16;;;;;;;11.65;5.85;;;;;;;18.66;nan;100885.91;4961787;28;20043;-73
2023/07/09 00:57:44;;;;;;;11.73;5.45;;;;;;;18.47;nan;100885.63;4974162;28;20121;-74
2023/07/09 01:00:14;;;;;;;11.00;4.47;;;;;;;18.39;nan;100892.31;4964928;28;20030;-71
2023/07/09 01:02:44;;;;;;;8.27;3.80;;;;;;;18.36;nan;100900.81;4964995;28;20388;-72
2023/07/09 01:05:12;;;;;;;7.45;3.80;;;;;;;18.32;nan;100896.31;4970392;28;20292;-72
2023/07/09 01:07:38;;;;;;;9.52;4.65;;;;;;;18.17;nan;100907.69;4966611;28;20088;-72
2023/07/09 01:10:04;;;;;;;13.32;3.95;;;;;;;18.09;nan;100905.56;4973186;28;20058;-73
2023/07/09 01:12:30;;;;;;;10.18;4.05;;;;;;;18.05;nan;100908.75;4945296;28;20586;-72
2023/07/09 01:14:58;;;;;;;8.88;4.40;;;;;;;17.97;nan;100905.78;4966451;28;20050;-72
2023/07/09 01:17:27;;;;;;;10.27;4.80;;;;;;;17.87;nan;100916.44;4951604;28;20573;-72
2023/07/09 01:19:54;;;;;;;8.65;4.15;;;;;;;17.76;nan;100910.22;4963532;28;20037;-71
2023/07/09 01:22:21;;;;;;;9.05;4.68;;;;;;;17.68;nan;100914.19;4966509;28;20119;-71
2023/07/09 01:24:54;;;;;;;12.07;4.35;;;;;;;17.62;nan;100916.03;4967114;28;20064;-71
2023/07/09 01:27:30;;;;;;;11.00;4.30;;;;;;;17.54;nan;100910.38;4955941;28;20029;-72
2023/07/09 01:29:57;;;;;;;8.90;4.00;;;;;;;17.52;nan;100915.16;4969123;28;20035;-71
2023/07/09 01:32:22;;;;;;;7.97;3.72;;;;;;;17.44;nan;100916.44;4969895;28;20035;-71
2023/07/09 01:34:52;;;;;;;8.40;4.05;;;;;;;17.37;nan;100921.19;4953191;28;20035;-72
2023/07/09 01:37:21;;;;;;;9.70;4.05;;;;;;;17.23;nan;100911.00;4949664;28;20034;-72
2023/07/09 01:39:49;;;;;;;9.93;4.65;;;;;;;17.21;nan;100918.47;4946048;28;20063;-71
2023/07/09 01:42:17;;;;;;;9.70;7.55;;;;;;;17.28;nan;100914.75;4962476;28;20126;-71
2023/07/09 01:44:43;;;;;;;10.27;5.50;;;;;;;17.30;nan;100917.97;4969571;28;20034;-72
2023/07/09 01:47:08;;;;;;;9.13;4.45;;;;;;;17.28;nan;100922.75;4968475;28;20085;-72
2023/07/09 01:49:34;;;;;;;10.73;4.55;;;;;;;17.25;nan;100921.38;4968171;28;20030;-72
2023/07/09 01:52:02;;;;;;;11.60;4.68;;;;;;;17.13;nan;100899.50;4967549;28;20031;-72
2023/07/09 01:54:30;;;;;;;13.93;4.80;;;;;;;17.31;nan;100935.53;4960360;28;20082;-71
2023/07/09 01:57:25;;;;;;;10.82;4.50;;;;;;;17.28;nan;100933.38;4970991;28;20477;-72
2023/07/09 01:59:54;;;;;;;10.88;4.78;;;;;;;17.22;nan;100929.91;4969686;28;20042;-72
2023/07/09 02:02:21;;;;;;;10.40;4.10;;;;;;;17.16;nan;100933.56;4969850;28;20023;-71
2023/07/09 02:04:48;;;;;;;8.80;4.50;;;;;;;17.08;nan;100940.16;4967338;28;20165;-71
2023/07/09 02:07:14;;;;;;;6.95;4.80;;;;;;;16.99;nan;100944.34;4956248;28;20050;-72
2023/07/09 02:09:39;;;;;;;8.68;4.65;;;;;;;16.96;nan;100943.00;4953224;28;20031;-71
2023/07/09 02:12:05;;;;;;;13.13;4.60;;;;;;;16.87;nan;100933.09;4958420;28;20027;-71
2023/07/09 02:14:30;;;;;;;9.95;4.15;;;;;;;16.86;nan;100942.94;4969660;28;20610;-71
2023/07/09 02:16:55;;;;;;;8.50;4.38;;;;;;;16.75;nan;100942.00;4968510;28;20489;-70
2023/07/09 02:19:21;;;;;;;7.20;3.80;;;;;;;16.65;nan;100941.91;4971631;28;20110;-71
2023/07/09 02:21:46;;;;;;;7.85;4.50;;;;;;;16.66;nan;100948.81;4969378;28;20062;-72
2023/07/09 02:24:11;;;;;;;8.82;4.32;;;;;;;16.64;nan;100948.28;4969240;28;20034;-67
2023/07/09 02:26:37;;;;;;;8.07;4.72;;;;;;;16.57;nan;100945.84;4967980;28;20085;-67
2023/07/09 02:29:02;;;;;;;10.02;4.43;;;;;;;16.52;nan;100950.28;4949064;28;20034;-68
2023/07/09 02:31:29;;;;;;;8.05;4.43;;;;;;;16.45;nan;100947.84;4967380;28;20397;-68
2023/07/09 02:33:56;;;;;;;10.23;4.78;;;;;;;16.40;nan;100941.66;4966374;28;20062;-68
2023/07/09 02:36:22;;;;;;;8.77;4.40;;;;;;;16.41;nan;100949.38;4967416;28;20023;-68
2023/07/09 02:38:47;;;;;;;9.63;4.40;;;;;;;16.40;nan;100955.78;4952608;28;20404;-68
2023/07/09 02:41:13;;;;;;;9.82;4.55;;;;;;;16.32;nan;100949.00;4970217;28;20023;-68
2023/07/09 02:43:38;;;;;;;9.93;4.40;;;;;;;16.33;nan;100963.13;4969344;28;20109;-67
2023/07/09 02:46:03;;;;;;;10.02;4.88;;;;;;;16.32;nan;100969.47;4964565;28;20042;-67
2023/07/09 02:48:29;;;;;;;7.78;4.20;;;;;;;16.27;nan;100970.22;4970282;28;20416;-68
2023/07/09 02:50:54;;;;;;;9.68;4.10;;;;;;;16.25;nan;100969.66;4970923;28;20038;-67
2023/07/09 02:53:20;;;;;;;9.07;4.90;;;;;;;16.17;nan;100976.22;4967061;28;20473;-67
2023/07/09 02:55:45;;;;;;;8.43;4.75;;;;;;;16.12;nan;100968.19;4965618;28;20537;-67
2023/07/09 02:58:10;;;;;;;8.38;4.68;;;;;;;16.15;nan;100980.97;4963560;28;20035;-69
2023/07/09 03:00:36;;;;;;;11.25;4.10;;;;;;;15.93;nan;100951.75;4949788;28;20040;-68
2023/07/09 03:03:02;;;;;;;8.75;4.82;;;;;;;16.03;nan;100975.00;4973212;28;20034;-72
2023/07/09 03:05:27;;;;;;;7.38;4.57;;;;;;;16.05;nan;100982.72;4977674;28;20140;-72
2023/07/09 03:07:52;;;;;;;7.38;4.60;;;;;;;15.98;nan;100979.44;4973795;28;20420;-72
2023/07/09 03:10:18;;;;;;;10.25;5.10;;;;;;;15.98;nan;100979.44;4979911;28;20520;-72
2023/07/09 03:12:43;;;;;;;9.75;5.00;;;;;;;15.89;nan;100976.41;4950842;28;20422;-72
2023/07/09 03:15:09;;;;;;;9.35;4.53;;;;;;;15.92;nan;100983.88;4975409;28;20062;-72
2023/07/09 03:17:34;;;;;;;9.13;4.95;;;;;;;15.86;nan;100977.69;4989895;28;20081;-72
2023/07/09 03:19:59;;;;;;;11.77;5.00;;;;;;;15.82;nan;100981.88;4961059;28;20117;-72
2023/07/09 03:22:25;;;;;;;8.30;5.03;;;;;;;15.80;nan;100980.53;4972122;28;20034;-72
2023/07/09 03:24:50;;;;;;;7.72;4.85;;;;;;;15.80;nan;100994.59;4974137;28;20063;-73
2023/07/09 03:27:16;;;;;;;7.78;4.70;;;;;;;15.67;nan;100973.69;4971161;28;20033;-73
2023/07/09 03:29:41;;;;;;;11.27;5.15;;;;;;;15.69;nan;100988.34;4954171;28;20039;-73
2023/07/09 03:32:06;;;;;;;10.40;5.80;;;;;;;15.67;nan;100985.13;4969264;28;20061;-72
2023/07/09 03:34:32;;;;;;;9.88;5.75;;;;;;;15.64;nan;100990.13;4968545;28;20038;-73
2023/07/09 03:36:57;;;;;;;7.82;5.20;;;;;;;15.60;nan;100995.09;4972770;28;20491;-72
2023/07/09 03:39:23;;;;;;;9.65;5.63;;;;;;;15.54;nan;100985.47;4972701;28;20034;-73
2023/07/09 03:41:48;;;;;;;9.57;5.78;;;;;;;15.59;nan;100992.72;4975956;28;20043;-73
2023/07/09 03:44:13;;;;;;;11.93;5.80;;;;;;;15.64;nan;100990.91;4970239;28;20026;-73
2023/07/09 03:46:39;;;;;;;9.02;5.75;;;;;;;15.60;nan;100986.34;4958354;28;20113;-72
2023/07/09 03:49:04;;;;;;;9.48;5.80;;;;;;;15.68;nan;100999.19;4970391;28;20023;-73
2023/07/09 03:51:30;;;;;;;11.68;5.68;;;;;;;15.63;nan;100985.84;4971540;28;20043;-72
2023/07/09 03:53:55;;;;;;;9.50;5.63;;;;;;;15.72;nan;101001.13;4970018;28;20030;-74
2023/07/09 03:56:20;;;;;;;11.70;5.95;;;;;;;15.73;nan;101000.09;4970464;28;20034;-72
2023/07/09 03:58:46;;;;;;;8.45;5.22;;;;;;;15.77;nan;101003.06;4972569;28;20053;-72
2023/07/09 04:01:11;;;;;;;10.45;5.78;;;;;;;15.82;nan;100997.03;4972673;28;20027;-72
2023/07/09 04:03:37;;;;;;;11.52;5.80;;;;;;;15.86;nan;101000.81;4960111;28;20508;-71
2023/07/09 04:06:02;;;;;;;11.55;6.00;;;;;;;15.90;nan;100996.63;4970322;28;20076;-71
2023/07/09 04:08:28;;;;;;;12.23;5.88;;;;;;;15.97;nan;100997.25;4968364;28;20030;-72
2023/07/09 04:10:58;;;;;;;10.50;5.50;;;;;;;16.02;nan;100997.31;4947877;28;20030;-72
2023/07/09 04:13:23;;;;;;;14.10;5.60;;;;;;;16.08;nan;100995.50;4970390;28;20019;-71
2023/07/09 04:15:49;;;;;;;8.90;5.43;;;;;;;16.14;nan;100994.53;4970524;28;20041;-71
2023/07/09 04:18:15;;;;;;;9.50;5.07;;;;;;;16.13;nan;100984.94;4970470;28;20102;-70
2023/07/09 04:20:40;;;;;;;8.85;4.97;;;;;;;16.26;nan;100994.41;4954506;28;20544;-68
2023/07/09 04:23:06;;;;;;;13.52;5.43;;;;;;;16.24;nan;100988.53;4956909;28;20033;-69
2023/07/09 04:25:31;;;;;;;9.48;5.10;;;;;;;16.31;nan;100997.91;4970336;28;20030;-69
2023/07/09 04:27:57;;;;;;;9.82;5.10;;;;;;;16.40;nan;100997.47;4972423;28;20084;-71
2023/07/09 04:30:23;;;;;;;9.13;5.60;;;;;;;16.48;nan;101000.50;4969053;28;20049;-71
2023/07/09 04:32:48;;;;;;;9.25;5.18;;;;;;;16.55;nan;100993.13;4970195;28;20118;-70
2023/07/09 04:35:14;;;;;;;9.18;5.40;;;;;;;16.69;nan;101000.69;4969646;28;20030;-71
2023/07/09 04:37:40;;;;;;;11.23;5.18;;;;;;;16.74;nan;100993.59;4968540;28;20042;-71
2023/07/09 04:40:10;;;;;;;9.57;5.20;;;;;;;16.86;nan;101003.31;4967934;28;20441;-71
2023/07/09 04:42:37;;;;;;;12.10;5.25;;;;;;;16.97;nan;101005.78;4972494;28;20142;-70
2023/07/09 04:45:03;;;;;;;11.27;5.35;;;;;;;17.08;nan;101004.03;4952571;28;20118;-70
2023/07/09 04:47:28;;;;;;;9.98;5.47;;;;;;;17.22;nan;101010.53;4968840;28;20027;-71
2023/07/09 04:49:54;;;;;;;9.23;4.55;;;;;;;17.34;nan;101015.69;4953903;28;20037;-70
2023/07/09 04:52:19;;;;;;;8.02;4.57;;;;;;;17.46;nan;101009.38;4955927;28;20019;-71
2023/07/09 04:54:45;;;;;;;9.60;4.88;;;;;;;17.61;nan;101010.28;4964857;28;20089;-71
2023/07/09 04:57:12;;;;;;;8.52;5.00;;;;;;;17.65;nan;101008.72;4956323;28;20560;-71
2023/07/09 04:59:37;;;;;;;12.30;5.55;;;;;;;17.80;nan;101018.69;4967099;28;20077;-71
2023/07/09 05:02:03;;;;;;;9.32;4.93;;;;;;;17.92;nan;101025.69;4956632;28;20050;-72
2023/07/09 05:04:30;;;;;;;8.48;4.70;;;;;;;18.01;nan;101022.25;4969829;28;20038;-72
2023/07/09 05:06:57;;;;;;;9.23;5.10;;;;;;;18.18;nan;101026.59;4944775;28;20499;-71
2023/07/09 05:09:23;;;;;;;9.98;4.97;;;;;;;18.24;nan;101028.22;4945212;28;20701;-71
2023/07/09 05:11:49;;;;;;;6.68;4.95;;;;;;;18.32;nan;101013.59;4950552;28;20031;-71
2023/07/09 05:14:15;;;;;;;10.40;5.15;;;;;;;18.46;nan;101023.53;4971555;28;20042;-71
2023/07/09 05:16:40;;;;;;;8.82;4.57;;;;;;;18.54;nan;101029.41;4970500;28;20122;-73
2023/07/09 05:19:08;;;;;;;7.07;5.13;;;;;;;18.63;nan;101035.84;4972887;28;20604;-72
2023/07/09 05:21:36;;;;;;;7.57;4.47;;;;;;;18.67;nan;101028.88;4966475;28;21800;-70
2023/07/09 05:24:01;;;;;;;9.07;4.50;;;;;;;18.69;nan;101024.09;4979885;28;20027;-70
2023/07/09 05:26:27;;;;;;;9.90;4.30;;;;;;;18.78;nan;101016.41;4970288;28;20543;-71
2023/07/09 05:28:52;;;;;;;8.48;4.22;;;;;;;18.93;nan;101032.44;4960381;28;20121;-71
2023/07/09 05:31:18;;;;;;;6.78;4.10;;;;;;;18.97;nan;101025.50;4969675;28;20146;-70
2023/07/09 05:33:44;;;;;;;6.82;4.30;;;;;;;19.01;nan;101020.44;4968918;28;20054;-72
2023/07/09 05:36:15;;;;;;;7.28;4.82;;;;;;;19.09;nan;101027.94;4965496;28;20489;-71
2023/07/09 05:38:42;;;;;;;7.47;5.43;;;;;;;19.20;nan;101024.19;4967556;28;20031;-70
2023/07/09 05:41:10;;;;;;;6.90;4.72;;;;;;;19.34;nan;101035.13;4968608;28;20027;-70
2023/07/09 05:43:35;;;;;;;6.90;4.18;;;;;;;19.46;nan;101024.16;4969843;28;20552;-70
2023/07/09 05:46:02;;;;;;;8.35;4.00;;;;;;;19.59;nan;101023.63;4956034;28;20030;-69
2023/07/09 05:48:28;;;;;;;6.80;3.97;;;;;;;19.72;nan;101027.63;4967737;28;20113;-71
2023/07/09 05:50:57;;;;;;;9.98;4.00;;;;;;;19.77;nan;101016.94;4955236;28;20805;-70
2023/07/09 05:53:23;;;;;;;6.82;4.00;;;;;;;19.93;nan;101021.16;4966838;28;20071;-70
2023/07/09 05:55:48;;;;;;;5.40;3.60;;;;;;;20.04;nan;101024.63;4964351;28;20524;-70
2023/07/09 05:58:14;;;;;;;6.45;3.70;;;;;;;20.10;nan;101020.84;4966442;28;20100;-69
2023/07/09 06:00:41;;;;;;;7.35;3.95;;;;;;;20.23;nan;101021.31;4970581;28;20030;-71
2023/07/09 06:03:07;;;;;;;7.10;4.13;;;;;;;20.34;nan;101025.56;4952278;28;20042;-71
2023/07/09 06:05:34;;;;;;;5.75;3.58;;;;;;;20.37;nan;101022.31;4964637;28;20042;-71
2023/07/09 06:07:59;;;;;;;7.63;3.90;;;;;;;20.27;nan;100988.41;4951291;28;20447;-71
2023/07/09 06:10:25;;;;;;;8.48;3.53;;;;;;;20.69;nan;101032.63;4970806;28;20026;-69
2023/07/09 06:12:50;;;;;;;8.38;3.75;;;;;;;20.80;nan;101033.34;4951768;28;20034;-71
2023/07/09 06:15:16;;;;;;;4.75;3.50;;;;;;;20.89;nan;101037.03;4967865;28;20051;-72
2023/07/09 06:17:44;;;;;;;6.18;3.90;;;;;;;20.92;nan;101027.66;4968083;28;20341;-71
2023/07/09 06:20:10;;;;;;;8.95;3.53;;;;;;;21.07;nan;101030.22;4969146;28;20034;-71
2023/07/09 06:22:36;;;;;;;10.88;4.07;;;;;;;21.18;nan;101034.41;4965441;28;20031;-70
2023/07/09 06:25:01;;;;;;;4.95;3.25;;;;;;;21.25;nan;101028.72;4966170;28;20019;-68
2023/07/09 06:27:27;;;;;;;9.00;3.53;;;;;;;21.16;nan;101019.69;4953160;28;20357;-69
2023/07/09 06:29:52;;;;;;;9.02;4.15;;;;;;;21.27;nan;101007.81;4967951;28;20063;-68
2023/07/09 06:32:18;;;;;;;9.15;3.90;;;;;;;21.61;nan;101031.13;4970468;28;20503;-69
2023/07/09 06:34:43;;;;;;;6.55;3.30;;;;;;;21.62;nan;101025.47;4966089;28;20157;-68
2023/07/09 06:37:09;;;;;;;6.72;3.47;;;;;;;21.81;nan;101038.13;4966951;28;20034;-68
2023/07/09 06:39:34;;;;;;;5.47;3.33;;;;;;;21.93;nan;101035.06;4967261;28;20026;-68
2023/07/09 06:41:59;;;;;;;3.90;3.05;;;;;;;22.02;nan;101034.16;4954151;28;20041;-69
2023/07/09 06:44:25;;;;;;;6.85;3.50;;;;;;;22.17;nan;101035.06;4970719;28;20019;-69
2023/07/09 06:46:51;;;;;;;5.47;3.35;;;;;;;22.18;nan;101026.72;4971123;28;20480;-70
2023/07/09 06:49:16;;;;;;;5.03;3.10;;;;;;;22.29;nan;101033.59;4969683;28;20022;-69
2023/07/09 06:51:42;;;;;;;5.00;3.13;;;;;;;22.49;nan;101039.78;4965511;28;20034;-71
2023/07/09 06:54:08;;;;;;;4.78;3.33;;;;;;;22.61;nan;101037.47;4966085;28;20043;-71
2023/07/09 06:56:34;;;;;;;3.97;2.90;;;;;;;22.66;nan;101039.28;4972037;28;20041;-72
2023/07/09 06:58:59;;;;;;;7.47;3.20;;;;;;;22.75;nan;101031.34;4953149;28;20035;-73
2023/07/09 07:01:25;;;;;;;7.70;3.33;;;;;;;22.94;nan;101037.53;4951978;28;20040;-70
2023/07/09 07:03:50;;;;;;;6.45;3.30;;;;;;;23.05;nan;101030.91;4973013;28;20472;-71
2023/07/09 07:06:16;;;;;;;6.30;2.97;;;;;;;23.16;nan;101026.19;4966455;28;20389;-69
2023/07/09 07:08:41;;;;;;;6.47;3.10;;;;;;;23.32;nan;101029.41;4954773;28;20118;-70
2023/07/09 07:11:07;;;;;;;5.80;2.97;;;;;;;23.46;nan;101027.53;4949629;28;20473;-73
2023/07/09 07:13:35;;;;;;;7.03;3.05;;;;;;;23.62;nan;101014.63;4965662;28;20030;-73
2023/07/09 07:16:02;;;;;;;4.07;3.08;;;;;;;23.84;nan;101026.63;4969071;28;20034;-72
2023/07/09 07:18:28;;;;;;;3.38;2.80;;;;;;;23.97;nan;101025.81;4968531;28;20022;-74
2023/07/09 07:20:53;;;;;;;5.47;2.72;;;;;;;24.03;nan;101021.91;4958745;28;20041;-72
2023/07/09 07:23:19;;;;;;;4.97;2.92;;;;;;;24.08;nan;101024.50;4968607;28;20038;-71
2023/07/09 07:25:46;;;;;;;5.93;2.83;;;;;;;24.24;nan;101027.69;4973911;28;20026;-72
2023/07/09 07:28:11;;;;;;;5.53;2.83;;;;;;;24.31;nan;101013.81;4969771;28;20027;-73
2023/07/09 07:30:37;;;;;;;5.32;2.92;;;;;;;24.37;nan;101021.50;4966319;28;20035;-70
2023/07/09 07:33:02;;;;;;;3.92;2.78;;;;;;;24.41;nan;101014.38;4967110;28;20026;-72
2023/07/09 07:35:28;;;;;;;3.53;2.65;;;;;;;24.52;nan;101022.25;4966652;28;20030;-72
2023/07/09 07:37:53;;;;;;;6.68;2.75;;;;;;;24.66;nan;101020.31;4967039;28;20053;-69
2023/07/09 07:40:18;;;;;;;6.78;2.70;;;;;;;24.66;nan;101012.25;4951345;28;20089;-73
2023/07/09 07:42:44;;;;;;;3.38;2.38;;;;;;;24.81;nan;101013.81;4952251;28;20580;-71
2023/07/09 07:45:09;;;;;;;3.10;2.40;;;;;;;24.92;nan;101012.44;4968621;28;20014;-73
2023/07/09 07:47:35;;;;;;;7.00;2.55;;;;;;;25.14;nan;101022.44;4965850;28;20033;-72
2023/07/09 07:50:00;;;;;;;3.72;2.47;;;;;;;25.20;nan;101010.44;4971636;28;20076;-73
2023/07/09 07:52:28;;;;;;;5.15;2.63;;;;;;;25.36;nan;101013.53;4953754;28;20054;-73
2023/07/09 07:54:53;;;;;;;5.65;2.40;;;;;;;25.47;nan;101014.03;4970010;28;20027;-73
2023/07/09 07:57:19;;;;;;;3.67;2.30;;;;;;;25.59;nan;101014.25;4970945;28;20031;-74
2023/07/09 07:59:46;;;;;;;4.47;2.53;;;;;;;25.59;nan;101005.38;4956328;28;20037;-74
2023/07/09 08:02:13;;;;;;;3.95;2.75;;;;;;;25.68;nan;101012.41;4966237;28;20035;-71
2023/07/09 08:04:40;;;;;;;4.40;2.92;;;;;;;25.75;nan;101005.75;4973161;28;20026;-76
2023/07/09 08:07:07;;;;;;;5.38;2.63;;;;;;;25.89;nan;101007.25;4969693;28;20445;-75
2023/07/09 08:09:34;;;;;;;6.65;2.70;;;;;;;25.91;nan;101004.25;4972340;28;20019;-76
2023/07/09 08:12:00;;;;;;;3.53;2.60;;;;;;;26.00;nan;101017.75;4970561;28;20077;-73
2023/07/09 08:14:25;;;;;;;3.08;2.17;;;;;;;25.92;nan;100995.03;4956748;28;20039;-73
2023/07/09 08:16:50;;;;;;;5.95;2.88;;;;;;;26.03;nan;101009.06;4973788;28;20038;-72
2023/07/09 08:19:19;;;;;;;4.40;2.53;;;;;;;26.22;nan;101011.47;4961165;28;20058;-71
2023/07/09 08:21:45;;;;;;;3.42;2.50;;;;;;;26.22;nan;101011.47;4957229;28;20133;-76
2023/07/09 08:24:10;;;;;;;3.20;2.50;;;;;;;26.21;nan;100999.84;4972730;28;20109;-74
2023/07/09 08:26:37;;;;;;;7.20;2.58;;;;;;;26.42;nan;101010.84;4973485;28;20046;-74
2023/07/09 08:29:03;;;;;;;5.22;2.53;;;;;;;26.49;nan;101010.38;4972652;28;20031;-73
2023/07/09 08:31:28;;;;;;;4.00;2.70;;;;;;;26.57;nan;100998.78;4968548;28;20520;-73
2023/07/09 08:33:54;;;;;;;4.60;2.38;;;;;;;26.65;nan;101005.28;4973505;28;20115;-74
2023/07/09 08:36:19;;;;;;;5.10;2.70;;;;;;;26.65;nan;101013.41;4974484;28;20392;-74
2023/07/09 08:38:45;;;;;;;4.03;2.70;;;;;;;26.58;nan;100994.19;4974690;28;20038;-74
2023/07/09 08:41:32;;;;;;;5.80;2.50;;;;;;;26.65;nan;101005.28;4977311;28;20038;-74
2023/07/09 08:44:03;;;;;;;3.75;2.70;;;;;;;26.68;nan;101004.69;4978588;28;20536;-73
2023/07/09 08:46:28;;;;;;;4.25;2.85;;;;;;;26.82;nan;101010.72;4988868;28;20098;-75
2023/07/09 08:48:58;;;;;;;3.40;2.40;;;;;;;26.77;nan;100997.38;4978606;28;20117;-73
2023/07/09 08:51:34;;;;;;;4.57;2.42;;;;;;;26.83;nan;101003.38;4954740;28;20793;-74
2023/07/09 08:54:00;;;;;;;4.43;2.65;;;;;;;26.80;nan;100988.59;4980822;28;20121;-76
2023/07/09 08:56:29;;;;;;;3.70;2.42;;;;;;;26.82;nan;101001.81;4976949;28;20095;-74
2023/07/09 08:58:58;;;;;;;5.05;2.50;;;;;;;26.85;nan;101007.34;4977032;28;20117;-76
2023/07/09 09:01:41;;;;;;;4.30;2.58;;;;;;;27.00;nan;101002.56;4974323;28;20110;-73
2023/07/09 09:04:20;;;;;;;3.78;2.85;;;;;;;27.18;nan;101014.94;4970608;28;20026;-75
2023/07/09 09:06:51;;;;;;;5.43;2.70;;;;;;;27.20;nan;101007.31;4953030;28;20133;-74
2023/07/09 09:09:26;;;;;;;3.22;2.35;;;;;;;27.26;nan;101000.63;4970687;28;20723;-73
2023/07/09 09:12:12;;;;;;;5.82;2.72;;;;;;;27.32;nan;101001.22;4971792;28;20053;-73
2023/07/09 09:14:42;;;;;;;4.20;2.80;;;;;;;27.27;nan;100977.06;4968224;28;20137;-74
2023/07/09 09:17:17;;;;;;;3.38;2.60;;;;;;;27.28;nan;100975.97;4971768;28;20492;-72
2023/07/09 09:20:22;;;;;;;4.95;2.80;;;;;;;27.46;nan;100999.09;4972358;28;20184;-73
2023/07/09 09:22:54;;;;;;;6.95;2.85;;;;;;;27.44;nan;100989.72;4893498;29;20048;-74
2023/07/09 09:25:31;;;;;;;9.30;2.50;;;;;;;27.48;nan;101002.28;4890682;29;20519;-73
2023/07/09 09:28:01;;;;;;;4.68;2.70;;;;;;;27.53;nan;100993.97;4889634;29;20036;-73
2023/07/09 09:30:28;;;;;;;6.40;2.80;;;;;;;27.61;nan;100999.69;4889343;29;20152;-72
2023/07/09 09:32:58;;;;;;;5.43;2.80;;;;;;;27.58;nan;100990.28;4890989;29;20039;-73
2023/07/09 09:35:38;;;;;;;4.00;2.83;;;;;;;27.58;nan;100984.88;4890472;29;20025;-72
2023/07/09 09:38:11;;;;;;;5.50;2.35;;;;;;;27.62;nan;100996.66;4890028;29;20036;-73
2023/07/09 09:40:37;;;;;;;3.33;2.42;;;;;;;27.48;nan;100964.41;4889749;29;20492;-73
2023/07/09 09:43:09;;;;;;;5.18;3.05;;;;;;;27.93;nan;101000.97;4889148;29;20237;-71
2023/07/09 09:45:38;;;;;;;3.15;2.70;;;;;;;28.02;nan;100998.22;4888558;29;20120;-71
2023/07/09 09:48:31;;;;;;;4.93;2.40;;;;;;;28.07;nan;100998.81;4890168;29;20115;-71
2023/07/09 09:51:01;;;;;;;4.85;2.70;;;;;;;28.09;nan;100990.38;4889440;29;20127;-72
2023/07/09 09:53:28;;;;;;;3.80;2.47;;;;;;;28.22;nan;101000.16;4890506;29;20060;-71
2023/07/09 09:55:55;;;;;;;3.67;2.83;;;;;;;28.18;nan;100996.50;4903338;28;20378;-72
2023/07/09 09:58:27;;;;;;;6.15;3.05;;;;;;;28.20;nan;100997.75;4984170;28;20014;-71
2023/07/09 10:00:55;;;;;;;3.55;2.80;;;;;;;28.15;nan;100997.97;4954947;28;20034;-71
2023/07/09 10:03:20;;;;;;;4.10;2.93;;;;;;;28.13;nan;100996.69;4970856;28;20025;-70
2023/07/09 10:05:56;;;;;;;7.53;4.10;;;;;;;28.19;nan;100996.19;4967843;28;20018;-71
2023/07/09 10:08:56;;;;;;;4.57;3.15;;;;;;;28.19;nan;100993.47;4965408;28;20030;-71
2023/07/09 10:11:32;;;;;;;5.95;3.70;;;;;;;28.18;nan;100986.50;4985927;28;20026;-72
2023/07/09 10:14:20;;;;;;;5.45;3.28;;;;;;;28.23;nan;100988.22;4968922;28;20074;-73
2023/07/09 10:16:51;;;;;;;4.05;3.20;;;;;;;28.35;nan;100982.03;4962418;28;20046;-71
2023/07/09 10:19:25;;;;;;;6.13;3.00;;;;;;;28.42;nan;100979.59;4961948;28;20071;-70
2023/07/09 10:22:18;;;;;;;6.07;3.15;;;;;;;28.42;nan;100975.00;4967710;28;20526;-70
2023/07/09 10:25:02;;;;;;;8.43;5.95;;;;;;;28.47;nan;100971.31;4950003;28;20033;-74
2023/07/09 10:27:48;;;;;;;5.10;2.95;;;;;;;28.51;nan;100979.56;4969727;28;20026;-74
2023/07/09 10:30:49;;;;;;;4.05;2.92;;;;;;;28.55;nan;100975.84;4967307;28;20488;-74
2023/07/09 10:33:35;;;;;;;4.65;2.70;;;;;;;28.50;nan;100957.09;4972538;28;20614;-73
2023/07/09 10:36:18;;;;;;;3.20;2.60;;;;;;;28.60;nan;100964.81;4966982;28;20110;-71
2023/07/09 10:38:51;;;;;;;6.55;2.90;;;;;;;28.65;nan;100963.81;4964182;28;20054;-71
2023/07/09 10:41:18;;;;;;;3.80;2.80;;;;;;;28.63;nan;100961.41;4947308;28;20026;-71
2023/07/09 10:43:59;;;;;;;3.95;2.90;;;;;;;28.80;nan;100960.47;4965626;28;20065;-73
2023/07/09 10:46:31;;;;;;;9.75;3.67;;;;;;;28.90;nan;100967.41;4964525;28;20026;-74
2023/07/09 10:48:58;;;;;;;5.43;3.25;;;;;;;28.72;nan;100949.72;4968136;28;20027;-73
2023/07/09 10:51:29;;;;;;;5.45;3.53;;;;;;;28.99;nan;100967.28;4966115;28;20030;-73
2023/07/09 10:54:07;;;;;;;3.63;2.92;;;;;;;29.13;nan;100967.00;4965753;28;20505;-72
2023/07/09 10:56:37;;;;;;;5.73;2.87;;;;;;;28.95;nan;100945.47;4967925;28;20050;-72
2023/07/09 10:59:26;;;;;;;7.88;3.05;;;;;;;29.11;nan;100977.38;4966046;28;20386;-72
2023/07/09 11:02:06;;;;;;;5.43;2.80;;;;;;;29.12;nan;100962.72;4965753;28;20461;-73
2023/07/09 11:04:47;;;;;;;3.20;2.90;;;;;;;29.13;nan;100953.44;4976531;28;20130;-73
2023/07/09 11:07:18;;;;;;;6.15;3.00;;;;;;;29.21;nan;100964.19;4979581;28;20039;-73
2023/07/09 11:09:46;;;;;;;3.92;3.05;;;;;;;29.20;nan;100959.09;4968585;28;20122;-72
2023/07/09 11:12:49;;;;;;;3.77;2.60;;;;;;;29.24;nan;100970.88;4963910;28;20023;-72
2023/07/09 11:15:25;;;;;;;3.92;3.03;;;;;;;29.25;nan;100962.38;4934236;28;20350;-73
2023/07/09 11:17:50;;;;;;;4.93;2.95;;;;;;;29.19;nan;100965.66;4947087;28;20764;-72
2023/07/09 11:20:24;;;;;;;5.80;3.20;;;;;;;29.15;nan;100962.03;4942358;28;20058;-74
2023/07/09 11:23:00;;;;;;;4.07;2.72;;;;;;;29.23;nan;100964.63;4947732;28;20019;-73
2023/07/09 11:25:47;;;;;;;3.00;2.58;;;;;;;29.26;nan;100963.97;4951500;28;20090;-74
2023/07/09 11:28:14;;;;;;;6.18;3.17;;;;;;;29.23;nan;100967.34;4950702;28;20054;-71
2023/07/09 11:31:07;;;;;;;4.50;2.80;;;;;;;29.17;nan;100960.56;4953765;28;20468;-71
2023/07/09 11:33:33;;;;;;;6.72;2.83;;;;;;;29.19;nan;100968.38;4951639;28;20590;-71
2023/07/09 11:36:26;;;;;;;3.17;2.72;;;;;;;29.25;nan;100967.78;4949995;28;20039;-73
2023/07/09 11:38:52;;;;;;;5.45;2.78;;;;;;;29.29;nan;100962.50;4949061;28;20097;-71
2023/07/09 11:41:39;;;;;;;4.05;2.60;;;;;;;29.44;nan;100958.31;4952320;28;20027;-73
2023/07/09 11:44:22;;;;;;;3.15;2.50;;;;;;;29.47;nan;100946.78;4952388;28;20019;-73
2023/07/09 11:47:23;;;;;;;6.15;2.60;;;;;;;29.58;nan;100947.13;4965044;28;20063;-73